sensor_id;sensor_type;location;lat;lon;timestamp;P1;durP1;ratioP1;P2;durP2;ratioP2
41667;SDS011;27356;50.920;5.350;2023-03-23T00:02:26;2.63;;;1.70;;
41667;SDS011;27356;50.920;5.350;2023-03-23T00:04:53;2.65;;;2.10;;
41667;SDS011;27356;50.920;5.350;2023-03-23T00:07:20;3.13;;;2.28;;
41667;SDS011;27356;50.920;5.350;2023-03-23T00:09:47;4.75;;;1.80;;
41667;SDS011;27356;50.920;5.350;2023-03-23T00:12:26;3.10;;;2.13;;
41667;SDS011;27356;50.920;5.350;2023-03-23T00:15:00;3.03;;;2.22;;
41667;SDS011;27356;50.920;5.350;2023-03-23T00:17:27;6.38;;;1.95;;
41667;SDS011;27356;50.920;5.350;2023-03-23T00:19:53;4.82;;;2.20;;
41667;SDS011;27356;50.920;5.350;2023-03-23T00:22:19;4.15;;;2.50;;
41667;SDS011;27356;50.920;5.350;2023-03-23T00:24:46;2.08;;;1.77;;
41667;SDS011;27356;50.920;5.350;2023-03-23T00:27:15;2.10;;;1.90;;
41667;SDS011;27356;50.920;5.350;2023-03-23T00:29:41;1.80;;;1.70;;
41667;SDS011;27356;50.920;5.350;2023-03-23T00:32:10;3.88;;;2.05;;
41667;SDS011;27356;50.920;5.350;2023-03-23T00:34:39;1.80;;;1.70;;
41667;SDS011;27356;50.920;5.350;2023-03-23T00:37:06;3.13;;;2.10;;
41667;SDS011;27356;50.920;5.350;2023-03-23T00:39:32;4.95;;;2.30;;
41667;SDS011;27356;50.920;5.350;2023-03-23T00:41:58;2.58;;;2.10;;
41667;SDS011;27356;50.920;5.350;2023-03-23T00:44:27;3.03;;;1.70;;
41667;SDS011;27356;50.920;5.350;2023-03-23T00:46:55;3.33;;;2.08;;
41667;SDS011;27356;50.920;5.350;2023-03-23T00:49:21;3.60;;;2.17;;
41667;SDS011;27356;50.920;5.350;2023-03-23T00:51:55;3.63;;;2.08;;
41667;SDS011;27356;50.920;5.350;2023-03-23T00:54:22;5.68;;;2.13;;
41667;SDS011;27356;50.920;5.350;2023-03-23T00:56:49;4.60;;;2.85;;
41667;SDS011;27356;50.920;5.350;2023-03-23T00:59:16;3.95;;;2.53;;
41667;SDS011;27356;50.920;5.350;2023-03-23T01:01:42;3.63;;;2.30;;
41667;SDS011;27356;50.920;5.350;2023-03-23T01:04:08;3.65;;;2.47;;
41667;SDS011;27356;50.920;5.350;2023-03-23T01:06:37;5.25;;;2.40;;
41667;SDS011;27356;50.920;5.350;2023-03-23T01:09:10;3.75;;;2.50;;
41667;SDS011;27356;50.920;5.350;2023-03-23T01:11:39;4.10;;;1.90;;
41667;SDS011;27356;50.920;5.350;2023-03-23T01:14:12;3.40;;;2.28;;
41667;SDS011;27356;50.920;5.350;2023-03-23T01:16:39;3.55;;;1.95;;
41667;SDS011;27356;50.920;5.350;2023-03-23T01:19:05;3.35;;;2.40;;
41667;SDS011;27356;50.920;5.350;2023-03-23T01:21:31;2.40;;;2.20;;
41667;SDS011;27356;50.920;5.350;2023-03-23T01:23:56;3.72;;;2.40;;
41667;SDS011;27356;50.920;5.350;2023-03-23T01:26:23;2.15;;;2.03;;
41667;SDS011;27356;50.920;5.350;2023-03-23T01:28:50;3.25;;;2.22;;
41667;SDS011;27356;50.920;5.350;2023-03-23T01:31:18;4.40;;;2.17;;
41667;SDS011;27356;50.920;5.350;2023-03-23T01:33:45;2.72;;;2.00;;
41667;SDS011;27356;50.920;5.350;2023-03-23T01:36:13;2.38;;;1.85;;
41667;SDS011;27356;50.920;5.350;2023-03-23T01:38:41;3.65;;;2.15;;
41667;SDS011;27356;50.920;5.350;2023-03-23T01:41:09;5.30;;;2.63;;
41667;SDS011;27356;50.920;5.350;2023-03-23T01:43:36;3.83;;;2.25;;
41667;SDS011;27356;50.920;5.350;2023-03-23T01:46:18;3.05;;;2.45;;
41667;SDS011;27356;50.920;5.350;2023-03-23T01:48:43;3.35;;;3.05;;
41667;SDS011;27356;50.920;5.350;2023-03-23T01:51:13;2.58;;;2.38;;
41667;SDS011;27356;50.920;5.350;2023-03-23T01:53:46;3.13;;;2.53;;
41667;SDS011;27356;50.920;5.350;2023-03-23T01:56:15;3.05;;;2.30;;
41667;SDS011;27356;50.920;5.350;2023-03-23T01:58:44;2.50;;;2.30;;
41667;SDS011;27356;50.920;5.350;2023-03-23T02:01:11;3.00;;;2.50;;
41667;SDS011;27356;50.920;5.350;2023-03-23T02:03:42;2.90;;;2.25;;
41667;SDS011;27356;50.920;5.350;2023-03-23T02:06:10;3.17;;;2.67;;
41667;SDS011;27356;50.920;5.350;2023-03-23T02:08:36;4.85;;;2.35;;
41667;SDS011;27356;50.920;5.350;2023-03-23T02:11:16;2.70;;;2.47;;
41667;SDS011;27356;50.920;5.350;2023-03-23T02:13:43;4.88;;;2.60;;
41667;SDS011;27356;50.920;5.350;2023-03-23T02:24:59;2.55;;;2.35;;
41667;SDS011;27356;50.920;5.350;2023-03-23T02:35:54;2.33;;;2.10;;
41667;SDS011;27356;50.920;5.350;2023-03-23T02:39:19;3.13;;;2.10;;
41667;SDS011;27356;50.920;5.350;2023-03-23T02:41:44;4.03;;;2.58;;
41667;SDS011;27356;50.920;5.350;2023-03-23T02:44:14;3.00;;;2.05;;
41667;SDS011;27356;50.920;5.350;2023-03-23T02:46:41;3.47;;;2.05;;
41667;SDS011;27356;50.920;5.350;2023-03-23T02:49:08;3.05;;;2.33;;
41667;SDS011;27356;50.920;5.350;2023-03-23T02:51:37;2.85;;;1.95;;
41667;SDS011;27356;50.920;5.350;2023-03-23T02:54:04;2.10;;;1.95;;
41667;SDS011;27356;50.920;5.350;2023-03-23T02:56:30;3.15;;;2.10;;
41667;SDS011;27356;50.920;5.350;2023-03-23T02:58:58;2.10;;;1.98;;
41667;SDS011;27356;50.920;5.350;2023-03-23T03:03:59;2.35;;;2.15;;
41667;SDS011;27356;50.920;5.350;2023-03-23T03:12:32;5.90;;;2.25;;
41667;SDS011;27356;50.920;5.350;2023-03-23T03:15:26;2.10;;;1.98;;
41667;SDS011;27356;50.920;5.350;2023-03-23T03:20:28;2.80;;;1.80;;
41667;SDS011;27356;50.920;5.350;2023-03-23T03:22:56;3.67;;;1.88;;
41667;SDS011;27356;50.920;5.350;2023-03-23T03:25:23;1.70;;;1.60;;
41667;SDS011;27356;50.920;5.350;2023-03-23T03:27:52;3.30;;;1.83;;
41667;SDS011;27356;50.920;5.350;2023-03-23T03:30:20;2.03;;;1.92;;
41667;SDS011;27356;50.920;5.350;2023-03-23T03:32:50;2.83;;;1.70;;
41667;SDS011;27356;50.920;5.350;2023-03-23T03:35:18;2.47;;;2.00;;
41667;SDS011;27356;50.920;5.350;2023-03-23T03:37:49;2.55;;;1.95;;
41667;SDS011;27356;50.920;5.350;2023-03-23T03:40:16;2.10;;;1.60;;
41667;SDS011;27356;50.920;5.350;2023-03-23T03:42:44;3.33;;;1.90;;
41667;SDS011;27356;50.920;5.350;2023-03-23T03:45:12;5.32;;;1.83;;
41667;SDS011;27356;50.920;5.350;2023-03-23T03:47:40;2.45;;;1.60;;
41667;SDS011;27356;50.920;5.350;2023-03-23T03:50:06;2.75;;;1.63;;
41667;SDS011;27356;50.920;5.350;2023-03-23T03:52:32;2.58;;;1.33;;
41667;SDS011;27356;50.920;5.350;2023-03-23T03:54:58;1.67;;;1.50;;
41667;SDS011;27356;50.920;5.350;2023-03-23T03:57:24;4.22;;;1.50;;
41667;SDS011;27356;50.920;5.350;2023-03-23T03:59:50;3.28;;;1.48;;
41667;SDS011;27356;50.920;5.350;2023-03-23T04:02:16;2.13;;;1.52;;
41667;SDS011;27356;50.920;5.350;2023-03-23T04:04:49;3.75;;;1.42;;
41667;SDS011;27356;50.920;5.350;2023-03-23T04:09:43;4.40;;;1.70;;
41667;SDS011;27356;50.920;5.350;2023-03-23T04:12:14;2.30;;;1.20;;
41667;SDS011;27356;50.920;5.350;2023-03-23T04:14:40;1.88;;;1.50;;
41667;SDS011;27356;50.920;5.350;2023-03-23T04:17:06;2.03;;;1.33;;
41667;SDS011;27356;50.920;5.350;2023-03-23T04:19:34;4.45;;;1.75;;
41667;SDS011;27356;50.920;5.350;2023-03-23T04:22:01;3.28;;;1.40;;
41667;SDS011;27356;50.920;5.350;2023-03-23T04:24:28;4.55;;;1.50;;
41667;SDS011;27356;50.920;5.350;2023-03-23T04:26:57;4.25;;;1.45;;
41667;SDS011;27356;50.920;5.350;2023-03-23T04:29:24;5.78;;;1.85;;
41667;SDS011;27356;50.920;5.350;2023-03-23T04:32:08;5.65;;;2.05;;
41667;SDS011;27356;50.920;5.350;2023-03-23T04:34:34;4.85;;;1.30;;
41667;SDS011;27356;50.920;5.350;2023-03-23T04:37:00;5.15;;;1.80;;
41667;SDS011;27356;50.920;5.350;2023-03-23T04:39:25;2.97;;;1.30;;
41667;SDS011;27356;50.920;5.350;2023-03-23T04:41:53;4.45;;;1.45;;
41667;SDS011;27356;50.920;5.350;2023-03-23T04:44:19;4.18;;;1.00;;
41667;SDS011;27356;50.920;5.350;2023-03-23T04:46:46;5.90;;;1.70;;
41667;SDS011;27356;50.920;5.350;2023-03-23T04:49:14;5.85;;;1.60;;
41667;SDS011;27356;50.920;5.350;2023-03-23T04:51:45;4.50;;;1.70;;
41667;SDS011;27356;50.920;5.350;2023-03-23T04:54:12;4.43;;;1.15;;
41667;SDS011;27356;50.920;5.350;2023-03-23T04:56:38;4.65;;;1.98;;
41667;SDS011;27356;50.920;5.350;2023-03-23T04:59:03;3.42;;;1.20;;
41667;SDS011;27356;50.920;5.350;2023-03-23T05:01:31;4.70;;;1.63;;
41667;SDS011;27356;50.920;5.350;2023-03-23T05:03:59;6.63;;;1.38;;
41667;SDS011;27356;50.920;5.350;2023-03-23T05:06:25;7.72;;;1.27;;
41667;SDS011;27356;50.920;5.350;2023-03-23T05:08:51;5.20;;;1.55;;
41667;SDS011;27356;50.920;5.350;2023-03-23T05:11:16;8.77;;;1.75;;
41667;SDS011;27356;50.920;5.350;2023-03-23T05:13:42;5.82;;;1.50;;
41667;SDS011;27356;50.920;5.350;2023-03-23T05:16:09;8.60;;;1.67;;
41667;SDS011;27356;50.920;5.350;2023-03-23T05:18:35;4.35;;;1.58;;
41667;SDS011;27356;50.920;5.350;2023-03-23T05:21:01;6.78;;;1.25;;
41667;SDS011;27356;50.920;5.350;2023-03-23T05:23:28;5.80;;;1.88;;
41667;SDS011;27356;50.920;5.350;2023-03-23T05:25:58;7.55;;;2.10;;
41667;SDS011;27356;50.920;5.350;2023-03-23T05:28:27;3.47;;;1.30;;
41667;SDS011;27356;50.920;5.350;2023-03-23T05:30:53;5.25;;;1.23;;
41667;SDS011;27356;50.920;5.350;2023-03-23T05:33:20;8.63;;;1.67;;
41667;SDS011;27356;50.920;5.350;2023-03-23T05:35:47;4.53;;;1.33;;
41667;SDS011;27356;50.920;5.350;2023-03-23T05:38:13;6.10;;;1.60;;
41667;SDS011;27356;50.920;5.350;2023-03-23T05:40:41;3.97;;;1.40;;
41667;SDS011;27356;50.920;5.350;2023-03-23T05:43:07;4.93;;;1.10;;
41667;SDS011;27356;50.920;5.350;2023-03-23T05:45:34;3.97;;;1.25;;
41667;SDS011;27356;50.920;5.350;2023-03-23T05:48:00;3.83;;;1.40;;
41667;SDS011;27356;50.920;5.350;2023-03-23T05:50:25;8.27;;;1.45;;
41667;SDS011;27356;50.920;5.350;2023-03-23T05:52:52;3.83;;;1.17;;
41667;SDS011;27356;50.920;5.350;2023-03-23T05:55:19;5.85;;;1.30;;
41667;SDS011;27356;50.920;5.350;2023-03-23T05:57:45;5.20;;;1.20;;
41667;SDS011;27356;50.920;5.350;2023-03-23T06:00:11;2.42;;;0.90;;
41667;SDS011;27356;50.920;5.350;2023-03-23T06:02:45;4.20;;;1.00;;
41667;SDS011;27356;50.920;5.350;2023-03-23T06:05:12;2.95;;;1.20;;
41667;SDS011;27356;50.920;5.350;2023-03-23T06:07:38;2.42;;;1.00;;
41667;SDS011;27356;50.920;5.350;2023-03-23T06:10:05;5.05;;;1.83;;
41667;SDS011;27356;50.920;5.350;2023-03-23T06:12:32;6.15;;;1.70;;
41667;SDS011;27356;50.920;5.350;2023-03-23T06:14:58;3.85;;;1.10;;
41667;SDS011;27356;50.920;5.350;2023-03-23T06:17:24;4.50;;;0.88;;
41667;SDS011;27356;50.920;5.350;2023-03-23T06:19:50;6.30;;;1.35;;
41667;SDS011;27356;50.920;5.350;2023-03-23T06:22:16;3.40;;;1.08;;
41667;SDS011;27356;50.920;5.350;2023-03-23T06:24:43;4.03;;;1.45;;
41667;SDS011;27356;50.920;5.350;2023-03-23T06:27:09;3.03;;;0.90;;
41667;SDS011;27356;50.920;5.350;2023-03-23T06:29:35;3.20;;;1.30;;
41667;SDS011;27356;50.920;5.350;2023-03-23T06:32:02;4.38;;;1.20;;
41667;SDS011;27356;50.920;5.350;2023-03-23T06:34:29;4.95;;;1.27;;
41667;SDS011;27356;50.920;5.350;2023-03-23T06:36:57;2.78;;;1.00;;
41667;SDS011;27356;50.920;5.350;2023-03-23T06:39:23;6.15;;;1.40;;
41667;SDS011;27356;50.920;5.350;2023-03-23T06:41:49;3.53;;;1.27;;
41667;SDS011;27356;50.920;5.350;2023-03-23T06:44:15;4.90;;;1.20;;
41667;SDS011;27356;50.920;5.350;2023-03-23T06:46:42;2.20;;;0.85;;
41667;SDS011;27356;50.920;5.350;2023-03-23T06:49:08;2.78;;;0.95;;
41667;SDS011;27356;50.920;5.350;2023-03-23T06:51:33;5.63;;;0.98;;
41667;SDS011;27356;50.920;5.350;2023-03-23T06:54:00;6.82;;;1.30;;
41667;SDS011;27356;50.920;5.350;2023-03-23T06:56:25;4.50;;;1.02;;
41667;SDS011;27356;50.920;5.350;2023-03-23T06:58:51;5.65;;;1.70;;
41667;SDS011;27356;50.920;5.350;2023-03-23T07:01:17;7.32;;;1.17;;
41667;SDS011;27356;50.920;5.350;2023-03-23T07:03:43;2.75;;;1.15;;
41667;SDS011;27356;50.920;5.350;2023-03-23T07:06:09;6.32;;;1.20;;
41667;SDS011;27356;50.920;5.350;2023-03-23T07:08:35;3.28;;;0.93;;
41667;SDS011;27356;50.920;5.350;2023-03-23T07:11:01;3.75;;;1.05;;
41667;SDS011;27356;50.920;5.350;2023-03-23T07:13:27;3.33;;;1.30;;
41667;SDS011;27356;50.920;5.350;2023-03-23T07:15:53;5.30;;;1.20;;
41667;SDS011;27356;50.920;5.350;2023-03-23T07:18:21;5.47;;;1.25;;
41667;SDS011;27356;50.920;5.350;2023-03-23T07:20:47;4.30;;;1.25;;
41667;SDS011;27356;50.920;5.350;2023-03-23T07:23:14;5.90;;;1.30;;
41667;SDS011;27356;50.920;5.350;2023-03-23T07:25:40;9.95;;;1.35;;
41667;SDS011;27356;50.920;5.350;2023-03-23T07:28:06;6.25;;;1.35;;
41667;SDS011;27356;50.920;5.350;2023-03-23T07:30:32;5.97;;;1.35;;
41667;SDS011;27356;50.920;5.350;2023-03-23T07:32:57;7.45;;;1.42;;
41667;SDS011;27356;50.920;5.350;2023-03-23T07:35:24;3.15;;;1.00;;
41667;SDS011;27356;50.920;5.350;2023-03-23T07:37:50;3.08;;;1.35;;
41667;SDS011;27356;50.920;5.350;2023-03-23T07:40:17;7.05;;;1.35;;
41667;SDS011;27356;50.920;5.350;2023-03-23T07:42:44;8.18;;;1.45;;
41667;SDS011;27356;50.920;5.350;2023-03-23T07:45:14;3.15;;;1.08;;
41667;SDS011;27356;50.920;5.350;2023-03-23T07:47:40;6.72;;;1.58;;
41667;SDS011;27356;50.920;5.350;2023-03-23T07:50:07;7.63;;;1.33;;
41667;SDS011;27356;50.920;5.350;2023-03-23T07:52:34;6.80;;;1.00;;
41667;SDS011;27356;50.920;5.350;2023-03-23T07:55:00;4.30;;;1.00;;
41667;SDS011;27356;50.920;5.350;2023-03-23T07:57:28;5.30;;;1.00;;
41667;SDS011;27356;50.920;5.350;2023-03-23T07:59:55;5.07;;;1.00;;
41667;SDS011;27356;50.920;5.350;2023-03-23T08:02:22;5.53;;;1.13;;
41667;SDS011;27356;50.920;5.350;2023-03-23T08:04:48;4.60;;;1.10;;
41667;SDS011;27356;50.920;5.350;2023-03-23T08:07:15;5.80;;;1.55;;
41667;SDS011;27356;50.920;5.350;2023-03-23T08:09:44;5.65;;;1.10;;
41667;SDS011;27356;50.920;5.350;2023-03-23T08:12:10;4.13;;;2.20;;
41667;SDS011;27356;50.920;5.350;2023-03-23T08:14:37;2.85;;;0.90;;
41667;SDS011;27356;50.920;5.350;2023-03-23T08:17:03;4.32;;;1.40;;
41667;SDS011;27356;50.920;5.350;2023-03-23T08:19:29;6.97;;;1.20;;
41667;SDS011;27356;50.920;5.350;2023-03-23T08:21:55;5.88;;;0.93;;
41667;SDS011;27356;50.920;5.350;2023-03-23T08:24:22;4.78;;;1.10;;
41667;SDS011;27356;50.920;5.350;2023-03-23T08:26:48;6.18;;;1.25;;
41667;SDS011;27356;50.920;5.350;2023-03-23T08:29:14;9.75;;;1.70;;
41667;SDS011;27356;50.920;5.350;2023-03-23T08:31:41;3.33;;;1.08;;
41667;SDS011;27356;50.920;5.350;2023-03-23T08:34:06;5.15;;;1.40;;
41667;SDS011;27356;50.920;5.350;2023-03-23T08:36:33;4.68;;;1.13;;
41667;SDS011;27356;50.920;5.350;2023-03-23T08:39:00;6.47;;;1.67;;
41667;SDS011;27356;50.920;5.350;2023-03-23T08:41:25;5.95;;;1.42;;
41667;SDS011;27356;50.920;5.350;2023-03-23T08:43:51;2.88;;;1.20;;
41667;SDS011;27356;50.920;5.350;2023-03-23T08:46:17;2.35;;;0.80;;
41667;SDS011;27356;50.920;5.350;2023-03-23T08:48:44;4.93;;;1.23;;
41667;SDS011;27356;50.920;5.350;2023-03-23T08:51:10;3.92;;;0.75;;
41667;SDS011;27356;50.920;5.350;2023-03-23T08:53:37;1.95;;;0.40;;
41667;SDS011;27356;50.920;5.350;2023-03-23T08:56:04;0.95;;;0.55;;
41667;SDS011;27356;50.920;5.350;2023-03-23T08:58:31;1.67;;;0.43;;
41667;SDS011;27356;50.920;5.350;2023-03-23T09:00:57;0.95;;;0.60;;
41667;SDS011;27356;50.920;5.350;2023-03-23T09:03:23;1.92;;;0.55;;
41667;SDS011;27356;50.920;5.350;2023-03-23T09:05:49;3.85;;;0.60;;
41667;SDS011;27356;50.920;5.350;2023-03-23T09:08:15;1.45;;;0.60;;
41667;SDS011;27356;50.920;5.350;2023-03-23T09:10:41;0.90;;;0.75;;
41667;SDS011;27356;50.920;5.350;2023-03-23T09:13:07;1.63;;;0.77;;
41667;SDS011;27356;50.920;5.350;2023-03-23T09:15:32;3.03;;;1.05;;
41667;SDS011;27356;50.920;5.350;2023-03-23T09:17:58;4.53;;;1.25;;
41667;SDS011;27356;50.920;5.350;2023-03-23T09:20:26;4.03;;;1.20;;
41667;SDS011;27356;50.920;5.350;2023-03-23T09:22:53;1.45;;;0.75;;
41667;SDS011;27356;50.920;5.350;2023-03-23T09:25:21;2.60;;;0.95;;
41667;SDS011;27356;50.920;5.350;2023-03-23T09:27:51;4.28;;;1.08;;
41667;SDS011;27356;50.920;5.350;2023-03-23T09:30:21;3.53;;;1.02;;
41667;SDS011;27356;50.920;5.350;2023-03-23T09:32:51;2.60;;;0.90;;
41667;SDS011;27356;50.920;5.350;2023-03-23T09:35:17;2.42;;;1.20;;
41667;SDS011;27356;50.920;5.350;2023-03-23T09:37:44;2.38;;;1.15;;
41667;SDS011;27356;50.920;5.350;2023-03-23T09:40:15;2.92;;;1.40;;
41667;SDS011;27356;50.920;5.350;2023-03-23T09:42:53;5.65;;;1.23;;
41667;SDS011;27356;50.920;5.350;2023-03-23T09:53:39;6.40;;;1.10;;
41667;SDS011;27356;50.920;5.350;2023-03-23T09:56:10;2.83;;;0.93;;
41667;SDS011;27356;50.920;5.350;2023-03-23T10:01:46;1.25;;;0.50;;
41667;SDS011;27356;50.920;5.350;2023-03-23T10:04:32;1.30;;;0.82;;
41667;SDS011;27356;50.920;5.350;2023-03-23T10:07:17;2.60;;;0.73;;
41667;SDS011;27356;50.920;5.350;2023-03-23T10:09:51;1.98;;;0.73;;
41667;SDS011;27356;50.920;5.350;2023-03-23T10:12:21;3.90;;;0.70;;
41667;SDS011;27356;50.920;5.350;2023-03-23T10:15:27;3.80;;;1.15;;
41667;SDS011;27356;50.920;5.350;2023-03-23T10:18:02;3.00;;;0.75;;
41667;SDS011;27356;50.920;5.350;2023-03-23T10:20:53;5.75;;;1.33;;
41667;SDS011;27356;50.920;5.350;2023-03-23T10:24:10;4.07;;;1.40;;
41667;SDS011;27356;50.920;5.350;2023-03-23T10:28:56;7.30;;;1.38;;
41667;SDS011;27356;50.920;5.350;2023-03-23T10:31:30;13.98;;;1.73;;
41667;SDS011;27356;50.920;5.350;2023-03-23T10:34:04;6.60;;;0.90;;
41667;SDS011;27356;50.920;5.350;2023-03-23T10:36:55;2.45;;;1.00;;
41667;SDS011;27356;50.920;5.350;2023-03-23T10:39:31;2.05;;;1.15;;
41667;SDS011;27356;50.920;5.350;2023-03-23T10:42:28;5.32;;;1.40;;
41667;SDS011;27356;50.920;5.350;2023-03-23T10:45:20;2.10;;;1.17;;
41667;SDS011;27356;50.920;5.350;2023-03-23T10:48:47;4.25;;;1.58;;
41667;SDS011;27356;50.920;5.350;2023-03-23T10:50:46;3.72;;;1.02;;
41667;SDS011;27356;50.920;5.350;2023-03-23T10:53:16;2.08;;;1.30;;
41667;SDS011;27356;50.920;5.350;2023-03-23T10:55:48;3.80;;;1.02;;
41667;SDS011;27356;50.920;5.350;2023-03-23T10:58:31;3.03;;;0.90;;
41667;SDS011;27356;50.920;5.350;2023-03-23T11:01:00;3.28;;;1.20;;
41667;SDS011;27356;50.920;5.350;2023-03-23T11:06:29;2.00;;;0.90;;
41667;SDS011;27356;50.920;5.350;2023-03-23T11:09:11;5.07;;;0.90;;
41667;SDS011;27356;50.920;5.350;2023-03-23T11:11:40;1.83;;;1.27;;
41667;SDS011;27356;50.920;5.350;2023-03-23T11:14:24;3.28;;;0.98;;
41667;SDS011;27356;50.920;5.350;2023-03-23T11:16:59;2.35;;;0.73;;
41667;SDS011;27356;50.920;5.350;2023-03-23T11:21:53;1.52;;;0.95;;
41667;SDS011;27356;50.920;5.350;2023-03-23T11:24:23;2.15;;;1.10;;
41667;SDS011;27356;50.920;5.350;2023-03-23T11:26:51;3.15;;;1.05;;
41667;SDS011;27356;50.920;5.350;2023-03-23T11:29:25;7.95;;;1.20;;
41667;SDS011;27356;50.920;5.350;2023-03-23T11:32:00;2.78;;;0.77;;
41667;SDS011;27356;50.920;5.350;2023-03-23T11:34:33;6.13;;;1.38;;
41667;SDS011;27356;50.920;5.350;2023-03-23T11:39:59;2.30;;;1.05;;
41667;SDS011;27356;50.920;5.350;2023-03-23T11:42:46;3.67;;;1.10;;
41667;SDS011;27356;50.920;5.350;2023-03-23T11:50:59;2.55;;;1.17;;
41667;SDS011;27356;50.920;5.350;2023-03-23T11:56:12;3.33;;;1.10;;
41667;SDS011;27356;50.920;5.350;2023-03-23T11:58:53;4.28;;;1.40;;
41667;SDS011;27356;50.920;5.350;2023-03-23T12:01:54;2.65;;;1.27;;
41667;SDS011;27356;50.920;5.350;2023-03-23T12:20:59;3.65;;;1.58;;
41667;SDS011;27356;50.920;5.350;2023-03-23T12:23:46;5.55;;;1.40;;
41667;SDS011;27356;50.920;5.350;2023-03-23T12:27:07;7.20;;;1.85;;
41667;SDS011;27356;50.920;5.350;2023-03-23T12:32:26;3.83;;;1.30;;
41667;SDS011;27356;50.920;5.350;2023-03-23T12:48:56;4.55;;;1.58;;
41667;SDS011;27356;50.920;5.350;2023-03-23T12:51:45;3.03;;;1.48;;
41667;SDS011;27356;50.920;5.350;2023-03-23T13:07:55;4.22;;;1.50;;
41667;SDS011;27356;50.920;5.350;2023-03-23T13:10:28;6.65;;;1.60;;
41667;SDS011;27356;50.920;5.350;2023-03-23T13:12:58;8.32;;;1.60;;
41667;SDS011;27356;50.920;5.350;2023-03-23T13:23:49;5.20;;;1.75;;
41667;SDS011;27356;50.920;5.350;2023-03-23T13:26:19;5.55;;;1.58;;
41667;SDS011;27356;50.920;5.350;2023-03-23T13:31:25;8.93;;;1.73;;
41667;SDS011;27356;50.920;5.350;2023-03-23T13:34:00;5.10;;;1.95;;
41667;SDS011;27356;50.920;5.350;2023-03-23T13:36:59;4.45;;;1.83;;
41667;SDS011;27356;50.920;5.350;2023-03-23T14:13:57;6.80;;;2.10;;
41667;SDS011;27356;50.920;5.350;2023-03-23T14:19:00;9.27;;;2.35;;
41667;SDS011;27356;50.920;5.350;2023-03-23T14:24:03;8.30;;;2.25;;
41667;SDS011;27356;50.920;5.350;2023-03-23T14:26:41;8.27;;;1.90;;
41667;SDS011;27356;50.920;5.350;2023-03-23T14:29:13;4.80;;;2.35;;
41667;SDS011;27356;50.920;5.350;2023-03-23T14:31:39;5.35;;;2.38;;
41667;SDS011;27356;50.920;5.350;2023-03-23T14:34:12;7.55;;;2.30;;
41667;SDS011;27356;50.920;5.350;2023-03-23T14:36:40;6.70;;;1.83;;
41667;SDS011;27356;50.920;5.350;2023-03-23T14:39:21;5.50;;;1.52;;
41667;SDS011;27356;50.920;5.350;2023-03-23T14:41:50;5.10;;;1.60;;
41667;SDS011;27356;50.920;5.350;2023-03-23T14:44:26;7.70;;;2.53;;
41667;SDS011;27356;50.920;5.350;2023-03-23T14:46:55;4.78;;;1.88;;
41667;SDS011;27356;50.920;5.350;2023-03-23T14:49:29;5.72;;;1.83;;
41667;SDS011;27356;50.920;5.350;2023-03-23T14:52:03;2.95;;;1.65;;
41667;SDS011;27356;50.920;5.350;2023-03-23T14:54:35;6.18;;;1.65;;
41667;SDS011;27356;50.920;5.350;2023-03-23T14:57:10;6.07;;;1.70;;
41667;SDS011;27356;50.920;5.350;2023-03-23T14:59:45;5.35;;;1.73;;
41667;SDS011;27356;50.920;5.350;2023-03-23T15:02:13;6.45;;;2.00;;
41667;SDS011;27356;50.920;5.350;2023-03-23T15:04:51;4.68;;;2.00;;
41667;SDS011;27356;50.920;5.350;2023-03-23T15:07:20;5.30;;;1.85;;
41667;SDS011;27356;50.920;5.350;2023-03-23T15:09:49;8.23;;;1.90;;
41667;SDS011;27356;50.920;5.350;2023-03-23T15:12:24;6.82;;;1.85;;
41667;SDS011;27356;50.920;5.350;2023-03-23T15:14:54;6.50;;;1.98;;
41667;SDS011;27356;50.920;5.350;2023-03-23T15:17:23;3.67;;;1.25;;
41667;SDS011;27356;50.920;5.350;2023-03-23T15:19:51;4.30;;;1.58;;
41667;SDS011;27356;50.920;5.350;2023-03-23T15:22:27;6.30;;;1.70;;
41667;SDS011;27356;50.920;5.350;2023-03-23T15:25:03;3.83;;;1.92;;
41667;SDS011;27356;50.920;5.350;2023-03-23T15:27:40;6.78;;;1.27;;
41667;SDS011;27356;50.920;5.350;2023-03-23T15:30:15;5.22;;;1.52;;
41667;SDS011;27356;50.920;5.350;2023-03-23T15:32:47;4.47;;;1.30;;
41667;SDS011;27356;50.920;5.350;2023-03-23T15:35:20;6.70;;;1.88;;
41667;SDS011;27356;50.920;5.350;2023-03-23T15:37:52;6.43;;;1.80;;
41667;SDS011;27356;50.920;5.350;2023-03-23T15:40:32;4.43;;;1.30;;
41667;SDS011;27356;50.920;5.350;2023-03-23T15:48:48;9.60;;;1.88;;
41667;SDS011;27356;50.920;5.350;2023-03-23T15:51:30;4.88;;;1.80;;
41667;SDS011;27356;50.920;5.350;2023-03-23T15:54:03;5.65;;;1.65;;
41667;SDS011;27356;50.920;5.350;2023-03-23T15:56:34;8.15;;;1.88;;
41667;SDS011;27356;50.920;5.350;2023-03-23T15:59:00;9.00;;;1.98;;
41667;SDS011;27356;50.920;5.350;2023-03-23T16:01:26;7.00;;;1.65;;
41667;SDS011;27356;50.920;5.350;2023-03-23T16:03:54;8.30;;;1.40;;
41667;SDS011;27356;50.920;5.350;2023-03-23T16:06:32;8.05;;;1.45;;
41667;SDS011;27356;50.920;5.350;2023-03-23T16:08:59;7.00;;;1.52;;
41667;SDS011;27356;50.920;5.350;2023-03-23T16:11:27;12.45;;;1.95;;
41667;SDS011;27356;50.920;5.350;2023-03-23T16:13:55;4.35;;;1.45;;
41667;SDS011;27356;50.920;5.350;2023-03-23T16:16:26;8.00;;;2.33;;
41667;SDS011;27356;50.920;5.350;2023-03-23T16:18:53;4.25;;;1.75;;
41667;SDS011;27356;50.920;5.350;2023-03-23T16:21:19;13.45;;;2.28;;
41667;SDS011;27356;50.920;5.350;2023-03-23T16:23:46;5.47;;;1.77;;
41667;SDS011;27356;50.920;5.350;2023-03-23T16:26:12;4.65;;;1.67;;
41667;SDS011;27356;50.920;5.350;2023-03-23T16:28:39;7.38;;;1.70;;
41667;SDS011;27356;50.920;5.350;2023-03-23T16:31:05;5.28;;;1.45;;
41667;SDS011;27356;50.920;5.350;2023-03-23T16:33:31;8.43;;;1.73;;
41667;SDS011;27356;50.920;5.350;2023-03-23T16:35:56;5.60;;;1.77;;
41667;SDS011;27356;50.920;5.350;2023-03-23T16:38:23;7.68;;;1.70;;
41667;SDS011;27356;50.920;5.350;2023-03-23T16:40:49;5.22;;;1.63;;
41667;SDS011;27356;50.920;5.350;2023-03-23T16:43:15;6.70;;;1.70;;
41667;SDS011;27356;50.920;5.350;2023-03-23T16:45:42;7.03;;;1.70;;
41667;SDS011;27356;50.920;5.350;2023-03-23T16:48:09;5.18;;;1.70;;
41667;SDS011;27356;50.920;5.350;2023-03-23T16:50:36;7.53;;;1.70;;
41667;SDS011;27356;50.920;5.350;2023-03-23T16:53:03;7.85;;;1.70;;
41667;SDS011;27356;50.920;5.350;2023-03-23T16:55:31;5.63;;;1.70;;
41667;SDS011;27356;50.920;5.350;2023-03-23T16:57:56;6.30;;;1.60;;
41667;SDS011;27356;50.920;5.350;2023-03-23T17:00:23;3.97;;;1.48;;
41667;SDS011;27356;50.920;5.350;2023-03-23T17:02:51;8.40;;;1.70;;
41667;SDS011;27356;50.920;5.350;2023-03-23T17:05:21;5.30;;;1.48;;
41667;SDS011;27356;50.920;5.350;2023-03-23T17:07:48;10.40;;;1.85;;
41667;SDS011;27356;50.920;5.350;2023-03-23T17:10:14;6.22;;;1.42;;
41667;SDS011;27356;50.920;5.350;2023-03-23T17:12:41;3.58;;;1.65;;
41667;SDS011;27356;50.920;5.350;2023-03-23T17:15:08;9.50;;;1.85;;
41667;SDS011;27356;50.920;5.350;2023-03-23T17:17:35;13.95;;;2.00;;
41667;SDS011;27356;50.920;5.350;2023-03-23T17:20:01;8.60;;;1.80;;
41667;SDS011;27356;50.920;5.350;2023-03-23T17:22:28;6.88;;;2.17;;
41667;SDS011;27356;50.920;5.350;2023-03-23T17:24:54;7.57;;;2.15;;
41667;SDS011;27356;50.920;5.350;2023-03-23T17:27:21;10.27;;;2.67;;
41667;SDS011;27356;50.920;5.350;2023-03-23T17:29:47;10.50;;;1.60;;
41667;SDS011;27356;50.920;5.350;2023-03-23T17:32:13;8.75;;;1.75;;
41667;SDS011;27356;50.920;5.350;2023-03-23T17:34:39;6.20;;;1.92;;
41667;SDS011;27356;50.920;5.350;2023-03-23T17:37:05;5.88;;;1.50;;
41667;SDS011;27356;50.920;5.350;2023-03-23T17:39:32;9.73;;;2.05;;
41667;SDS011;27356;50.920;5.350;2023-03-23T17:41:58;5.95;;;1.80;;
41667;SDS011;27356;50.920;5.350;2023-03-23T17:44:26;8.68;;;2.35;;
41667;SDS011;27356;50.920;5.350;2023-03-23T17:46:52;5.65;;;2.17;;
41667;SDS011;27356;50.920;5.350;2023-03-23T17:49:20;9.77;;;2.17;;